sensor_id;sensor_type;location;lat;lon;timestamp;pressure;altitude;pressure_sealevel;temperature;humidity
74327;BME280;62745;51.060;13.786;2023-06-10T00:01:56;99989.63;;;17.98;100.00
74327;BME280;62745;51.060;13.786;2023-06-10T00:04:25;99984.22;;;17.98;100.00
74327;BME280;62745;51.060;13.786;2023-06-10T00:06:50;99990.44;;;17.98;100.00
74327;BME280;62745;51.060;13.786;2023-06-10T00:09:16;99999.59;;;17.97;100.00
74327;BME280;62745;51.060;13.786;2023-06-10T00:11:41;100000.44;;;17.81;100.00
74327;BME280;62745;51.060;13.786;2023-06-10T00:14:07;99996.50;;;17.89;100.00
74327;BME280;62745;51.060;13.786;2023-06-10T00:16:32;99995.84;;;17.82;100.00
74327;BME280;62745;51.060;13.786;2023-06-10T00:19:02;99995.03;;;17.81;100.00
74327;BME280;62745;51.060;13.786;2023-06-10T00:21:30;99997.38;;;17.78;100.00
74327;BME280;62745;51.060;13.786;2023-06-10T00:23:55;99995.91;;;17.70;100.00
74327;BME280;62745;51.060;13.786;2023-06-10T00:26:22;100000.25;;;17.71;100.00
74327;BME280;62745;51.060;13.786;2023-06-10T00:28:47;100005.97;;;17.74;100.00
74327;BME280;62745;51.060;13.786;2023-06-10T00:31:13;100004.09;;;17.75;100.00
74327;BME280;62745;51.060;13.786;2023-06-10T00:33:38;100007.03;;;17.73;100.00
74327;BME280;62745;51.060;13.786;2023-06-10T00:36:03;100011.31;;;17.69;100.00
74327;BME280;62745;51.060;13.786;2023-06-10T00:38:29;100015.66;;;17.70;100.00
74327;BME280;62745;51.060;13.786;2023-06-10T00:40:54;100024.56;;;17.71;100.00
74327;BME280;62745;51.060;13.786;2023-06-10T00:43:19;100019.88;;;17.66;100.00
74327;BME280;62745;51.060;13.786;2023-06-10T00:45:45;100024.91;;;17.63;100.00
74327;BME280;62745;51.060;13.786;2023-06-10T00:48:10;100030.41;;;17.51;100.00
74327;BME280;62745;51.060;13.786;2023-06-10T00:50:35;100037.94;;;17.49;100.00
74327;BME280;62745;51.060;13.786;2023-06-10T00:53:05;100040.63;;;17.49;100.00
74327;BME280;62745;51.060;13.786;2023-06-10T00:55:32;100044.63;;;17.47;100.00
74327;BME280;62745;51.060;13.786;2023-06-10T00:57:57;100040.59;;;17.32;100.00
74327;BME280;62745;51.060;13.786;2023-06-10T01:00:23;100045.19;;;17.32;100.00
74327;BME280;62745;51.060;13.786;2023-06-10T01:02:48;100049.88;;;17.25;100.00
74327;BME280;62745;51.060;13.786;2023-06-10T01:05:14;100055.53;;;17.23;100.00
74327;BME280;62745;51.060;13.786;2023-06-10T01:07:44;100064.84;;;17.16;100.00
74327;BME280;62745;51.060;13.786;2023-06-10T01:10:16;100067.06;;;17.19;100.00
74327;BME280;62745;51.060;13.786;2023-06-10T01:12:47;100057.00;;;17.02;100.00
74327;BME280;62745;51.060;13.786;2023-06-10T01:15:17;100063.94;;;16.98;100.00
74327;BME280;62745;51.060;13.786;2023-06-10T01:18:00;100066.41;;;17.00;100.00
74327;BME280;62745;51.060;13.786;2023-06-10T01:20:28;100067.00;;;17.02;100.00
74327;BME280;62745;51.060;13.786;2023-06-10T01:22:54;100070.69;;;17.12;100.00
74327;BME280;62745;51.060;13.786;2023-06-10T01:25:21;100070.75;;;17.01;100.00
74327;BME280;62745;51.060;13.786;2023-06-10T01:27:55;100078.50;;;16.97;100.00
74327;BME280;62745;51.060;13.786;2023-06-10T01:30:27;100069.81;;;16.95;100.00
74327;BME280;62745;51.060;13.786;2023-06-10T01:32:55;100070.50;;;17.02;100.00
74327;BME280;62745;51.060;13.786;2023-06-10T01:35:21;100062.19;;;16.92;100.00
74327;BME280;62745;51.060;13.786;2023-06-10T01:37:51;100070.63;;;16.96;100.00
74327;BME280;62745;51.060;13.786;2023-06-10T01:40:18;100063.25;;;16.91;100.00
74327;BME280;62745;51.060;13.786;2023-06-10T01:42:43;100068.75;;;16.96;100.00
74327;BME280;62745;51.060;13.786;2023-06-10T01:45:09;100071.59;;;16.90;100.00
74327;BME280;62745;51.060;13.786;2023-06-10T01:47:34;100085.31;;;16.88;100.00
74327;BME280;62745;51.060;13.786;2023-06-10T01:50:00;100079.81;;;16.83;100.00
74327;BME280;62745;51.060;13.786;2023-06-10T01:52:26;100086.38;;;16.75;100.00
74327;BME280;62745;51.060;13.786;2023-06-10T01:54:51;100087.91;;;16.71;100.00
74327;BME280;62745;51.060;13.786;2023-06-10T01:57:16;100094.84;;;16.67;100.00
74327;BME280;62745;51.060;13.786;2023-06-10T01:59:41;100095.50;;;16.63;100.00
74327;BME280;62745;51.060;13.786;2023-06-10T02:02:09;100091.06;;;16.57;100.00
74327;BME280;62745;51.060;13.786;2023-06-10T02:04:34;100093.06;;;16.49;100.00
74327;BME280;62745;51.060;13.786;2023-06-10T02:07:00;100099.97;;;16.45;100.00
74327;BME280;62745;51.060;13.786;2023-06-10T02:09:28;100094.47;;;16.40;100.00
74327;BME280;62745;51.060;13.786;2023-06-10T02:11:54;100101.63;;;16.35;100.00
74327;BME280;62745;51.060;13.786;2023-06-10T02:14:19;100097.88;;;16.36;100.00
74327;BME280;62745;51.060;13.786;2023-06-10T02:16:44;100103.16;;;16.31;100.00
74327;BME280;62745;51.060;13.786;2023-06-10T02:19:12;100101.13;;;16.26;100.00
74327;BME280;62745;51.060;13.786;2023-06-10T02:21:37;100107.09;;;16.28;100.00
74327;BME280;62745;51.060;13.786;2023-06-10T02:24:03;100111.69;;;16.16;100.00
74327;BME280;62745;51.060;13.786;2023-06-10T02:26:29;100110.28;;;16.13;100.00
74327;BME280;62745;51.060;13.786;2023-06-10T02:28:54;100122.31;;;16.11;100.00
74327;BME280;62745;51.060;13.786;2023-06-10T02:31:20;100118.22;;;16.08;100.00
74327;BME280;62745;51.060;13.786;2023-06-10T02:33:45;100119.03;;;16.09;100.00
74327;BME280;62745;51.060;13.786;2023-06-10T02:36:11;100115.72;;;15.95;100.00
74327;BME280;62745;51.060;13.786;2023-06-10T02:38:41;100126.28;;;15.97;100.00
74327;BME280;62745;51.060;13.786;2023-06-10T02:41:06;100119.72;;;16.04;100.00
74327;BME280;62745;51.060;13.786;2023-06-10T02:43:31;100110.13;;;16.08;100.00
74327;BME280;62745;51.060;13.786;2023-06-10T02:45:57;100111.91;;;16.14;100.00
74327;BME280;62745;51.060;13.786;2023-06-10T02:48:24;100108.75;;;16.17;100.00
74327;BME280;62745;51.060;13.786;2023-06-10T02:50:49;100108.00;;;16.10;100.00
74327;BME280;62745;51.060;13.786;2023-06-10T02:53:14;100109.66;;;16.11;100.00
74327;BME280;62745;51.060;13.786;2023-06-10T02:55:40;100108.69;;;15.94;100.00
74327;BME280;62745;51.060;13.786;2023-06-10T02:58:05;100108.66;;;15.82;100.00
74327;BME280;62745;51.060;13.786;2023-06-10T03:00:32;100108.41;;;15.72;100.00
74327;BME280;62745;51.060;13.786;2023-06-10T03:02:57;100106.53;;;15.73;100.00
74327;BME280;62745;51.060;13.786;2023-06-10T03:05:23;100110.84;;;15.62;100.00
74327;BME280;62745;51.060;13.786;2023-06-10T03:07:48;100109.97;;;15.61;100.00
74327;BME280;62745;51.060;13.786;2023-06-10T03:10:14;100119.88;;;15.49;100.00
74327;BME280;62745;51.060;13.786;2023-06-10T03:12:40;100119.72;;;15.44;100.00
74327;BME280;62745;51.060;13.786;2023-06-10T03:15:05;100120.41;;;15.40;100.00
74327;BME280;62745;51.060;13.786;2023-06-10T03:17:31;100113.84;;;15.35;100.00
74327;BME280;62745;51.060;13.786;2023-06-10T03:19:57;100115.94;;;15.33;100.00
74327;BME280;62745;51.060;13.786;2023-06-10T03:22:22;100126.47;;;15.35;100.00
74327;BME280;62745;51.060;13.786;2023-06-10T03:24:47;100125.88;;;15.33;100.00
74327;BME280;62745;51.060;13.786;2023-06-10T03:27:15;100118.81;;;15.50;100.00
74327;BME280;62745;51.060;13.786;2023-06-10T03:29:40;100122.78;;;15.48;100.00
74327;BME280;62745;51.060;13.786;2023-06-10T03:32:06;100128.31;;;15.53;100.00
74327;BME280;62745;51.060;13.786;2023-06-10T03:34:31;100127.25;;;15.54;100.00
74327;BME280;62745;51.060;13.786;2023-06-10T03:36:57;100130.50;;;15.62;100.00
74327;BME280;62745;51.060;13.786;2023-06-10T03:39:22;100129.13;;;15.53;100.00
74327;BME280;62745;51.060;13.786;2023-06-10T03:41:49;100132.19;;;15.57;100.00
74327;BME280;62745;51.060;13.786;2023-06-10T03:44:14;100137.31;;;15.65;100.00
74327;BME280;62745;51.060;13.786;2023-06-10T03:46:40;100134.44;;;15.60;100.00
74327;BME280;62745;51.060;13.786;2023-06-10T03:49:05;100138.19;;;15.59;100.00
74327;BME280;62745;51.060;13.786;2023-06-10T03:51:31;100133.22;;;15.56;100.00
74327;BME280;62745;51.060;13.786;2023-06-10T03:53:56;100138.13;;;15.66;100.00
74327;BME280;62745;51.060;13.786;2023-06-10T03:56:21;100140.34;;;15.69;100.00
74327;BME280;62745;51.060;13.786;2023-06-10T03:58:46;100137.97;;;15.60;100.00
74327;BME280;62745;51.060;13.786;2023-06-10T04:01:12;100138.03;;;15.72;100.00
74327;BME280;62745;51.060;13.786;2023-06-10T04:03:38;100140.41;;;15.80;100.00
74327;BME280;62745;51.060;13.786;2023-06-10T04:06:04;100141.47;;;15.91;100.00
74327;BME280;62745;51.060;13.786;2023-06-10T04:08:29;100154.59;;;15.87;100.00
74327;BME280;62745;51.060;13.786;2023-06-10T04:10:56;100151.78;;;15.82;100.00
74327;BME280;62745;51.060;13.786;2023-06-10T04:13:21;100156.22;;;15.88;100.00
74327;BME280;62745;51.060;13.786;2023-06-10T04:15:46;100158.00;;;15.94;100.00
74327;BME280;62745;51.060;13.786;2023-06-10T04:18:12;100154.25;;;15.95;100.00
74327;BME280;62745;51.060;13.786;2023-06-10T04:20:37;100151.13;;;15.99;100.00
74327;BME280;62745;51.060;13.786;2023-06-10T04:23:03;100156.88;;;16.02;100.00
74327;BME280;62745;51.060;13.786;2023-06-10T04:25:28;100151.94;;;15.99;100.00
74327;BME280;62745;51.060;13.786;2023-06-10T04:27:53;100157.34;;;15.99;100.00
74327;BME280;62745;51.060;13.786;2023-06-10T04:30:19;100155.69;;;16.10;100.00
74327;BME280;62745;51.060;13.786;2023-06-10T04:32:44;100151.94;;;16.11;100.00
74327;BME280;62745;51.060;13.786;2023-06-10T04:35:21;100152.81;;;16.23;100.00
74327;BME280;62745;51.060;13.786;2023-06-10T04:37:46;100157.97;;;16.24;100.00
74327;BME280;62745;51.060;13.786;2023-06-10T04:40:11;100156.69;;;16.27;100.00
74327;BME280;62745;51.060;13.786;2023-06-10T04:42:37;100160.81;;;16.41;100.00
74327;BME280;62745;51.060;13.786;2023-06-10T04:45:02;100149.09;;;16.47;100.00
74327;BME280;62745;51.060;13.786;2023-06-10T04:47:29;100155.56;;;16.46;100.00
74327;BME280;62745;51.060;13.786;2023-06-10T04:49:54;100152.97;;;16.51;100.00
74327;BME280;62745;51.060;13.786;2023-06-10T04:52:19;100152.63;;;16.60;100.00
74327;BME280;62745;51.060;13.786;2023-06-10T04:54:44;100150.44;;;16.68;100.00
74327;BME280;62745;51.060;13.786;2023-06-10T04:57:10;100163.44;;;16.71;100.00
74327;BME280;62745;51.060;13.786;2023-06-10T04:59:36;100160.19;;;16.81;100.00
74327;BME280;62745;51.060;13.786;2023-06-10T05:02:04;100165.69;;;16.86;100.00
74327;BME280;62745;51.060;13.786;2023-06-10T05:04:29;100162.03;;;16.92;100.00
74327;BME280;62745;51.060;13.786;2023-06-10T05:06:55;100163.66;;;17.05;100.00
74327;BME280;62745;51.060;13.786;2023-06-10T05:09:20;100169.16;;;17.10;100.00
74327;BME280;62745;51.060;13.786;2023-06-10T05:11:45;100169.41;;;17.20;100.00
74327;BME280;62745;51.060;13.786;2023-06-10T05:14:11;100170.31;;;17.26;100.00
74327;BME280;62745;51.060;13.786;2023-06-10T05:16:36;100160.00;;;17.23;100.00
74327;BME280;62745;51.060;13.786;2023-06-10T05:19:02;100165.50;;;17.28;100.00
74327;BME280;62745;51.060;13.786;2023-06-10T05:21:28;100161.03;;;17.33;100.00
74327;BME280;62745;51.060;13.786;2023-06-10T05:23:53;100165.25;;;17.41;100.00
74327;BME280;62745;51.060;13.786;2023-06-10T05:26:18;100168.28;;;17.44;100.00
74327;BME280;62745;51.060;13.786;2023-06-10T05:28:44;100171.69;;;17.52;100.00
74327;BME280;62745;51.060;13.786;2023-06-10T05:31:09;100176.00;;;17.53;100.00
74327;BME280;62745;51.060;13.786;2023-06-10T05:33:34;100167.56;;;17.49;100.00
74327;BME280;62745;51.060;13.786;2023-06-10T05:35:59;100173.31;;;17.53;100.00
74327;BME280;62745;51.060;13.786;2023-06-10T05:38:25;100179.16;;;17.61;100.00
74327;BME280;62745;51.060;13.786;2023-06-10T05:40:50;100179.00;;;17.80;100.00
74327;BME280;62745;51.060;13.786;2023-06-10T05:43:15;100174.22;;;17.98;100.00
74327;BME280;62745;51.060;13.786;2023-06-10T05:45:41;100180.50;;;18.16;98.49
74327;BME280;62745;51.060;13.786;2023-06-10T05:48:07;100189.19;;;18.34;97.35
74327;BME280;62745;51.060;13.786;2023-06-10T05:50:33;100176.31;;;18.42;95.82
74327;BME280;62745;51.060;13.786;2023-06-10T05:53:03;100187.06;;;18.53;95.08
74327;BME280;62745;51.060;13.786;2023-06-10T05:55:28;100186.00;;;18.54;94.32
74327;BME280;62745;51.060;13.786;2023-06-10T05:57:58;100179.78;;;18.54;92.55
74327;BME280;62745;51.060;13.786;2023-06-10T06:00:24;100184.44;;;18.58;93.72
74327;BME280;62745;51.060;13.786;2023-06-10T06:02:49;100186.06;;;18.59;93.68
74327;BME280;62745;51.060;13.786;2023-06-10T06:05:15;100178.66;;;18.67;92.25
74327;BME280;62745;51.060;13.786;2023-06-10T06:07:41;100187.75;;;18.77;91.75
74327;BME280;62745;51.060;13.786;2023-06-10T06:10:06;100177.22;;;18.81;92.32
74327;BME280;62745;51.060;13.786;2023-06-10T06:12:32;100179.59;;;18.94;91.15
74327;BME280;62745;51.060;13.786;2023-06-10T06:14:57;100183.78;;;19.02;89.18
74327;BME280;62745;51.060;13.786;2023-06-10T06:17:22;100187.44;;;19.12;90.49
74327;BME280;62745;51.060;13.786;2023-06-10T06:19:47;100189.97;;;19.19;87.29
74327;BME280;62745;51.060;13.786;2023-06-10T06:22:13;100186.56;;;19.29;86.49
74327;BME280;62745;51.060;13.786;2023-06-10T06:24:38;100185.25;;;19.31;83.03
74327;BME280;62745;51.060;13.786;2023-06-10T06:27:03;100184.81;;;19.39;82.96
74327;BME280;62745;51.060;13.786;2023-06-10T06:29:29;100189.78;;;19.47;81.85
74327;BME280;62745;51.060;13.786;2023-06-10T06:31:55;100192.91;;;19.56;81.39
74327;BME280;62745;51.060;13.786;2023-06-10T06:34:20;100181.63;;;19.64;81.88
74327;BME280;62745;51.060;13.786;2023-06-10T06:36:45;100177.97;;;19.53;83.11
74327;BME280;62745;51.060;13.786;2023-06-10T06:39:10;100180.25;;;19.62;83.07
74327;BME280;62745;51.060;13.786;2023-06-10T06:41:36;100183.72;;;19.57;83.04
74327;BME280;62745;51.060;13.786;2023-06-10T06:44:01;100191.50;;;19.53;83.76
74327;BME280;62745;51.060;13.786;2023-06-10T06:46:26;100185.09;;;19.60;84.69
74327;BME280;62745;51.060;13.786;2023-06-10T06:48:51;100205.19;;;19.64;84.09
74327;BME280;62745;51.060;13.786;2023-06-10T06:51:17;100200.50;;;19.81;84.31
74327;BME280;62745;51.060;13.786;2023-06-10T06:53:42;100201.91;;;19.83;83.86
74327;BME280;62745;51.060;13.786;2023-06-10T06:56:10;100203.59;;;19.90;83.63
74327;BME280;62745;51.060;13.786;2023-06-10T06:58:36;100209.59;;;19.92;82.41
74327;BME280;62745;51.060;13.786;2023-06-10T07:01:01;100211.13;;;20.09;82.30
74327;BME280;62745;51.060;13.786;2023-06-10T07:03:27;100218.81;;;20.18;82.46
74327;BME280;62745;51.060;13.786;2023-06-10T07:05:52;100219.13;;;20.21;81.87
74327;BME280;62745;51.060;13.786;2023-06-10T07:08:17;100219.72;;;20.28;81.83
74327;BME280;62745;51.060;13.786;2023-06-10T07:10:42;100226.41;;;20.42;80.79
74327;BME280;62745;51.060;13.786;2023-06-10T07:13:08;100223.84;;;20.58;81.65
74327;BME280;62745;51.060;13.786;2023-06-10T07:15:33;100222.03;;;20.68;81.49
74327;BME280;62745;51.060;13.786;2023-06-10T07:17:58;100219.38;;;20.79;79.48
74327;BME280;62745;51.060;13.786;2023-06-10T07:20:23;100229.00;;;20.96;79.56
74327;BME280;62745;51.060;13.786;2023-06-10T07:22:49;100230.16;;;21.06;79.35
74327;BME280;62745;51.060;13.786;2023-06-10T07:25:14;100227.88;;;21.24;78.41
74327;BME280;62745;51.060;13.786;2023-06-10T07:27:40;100230.34;;;21.31;77.36
74327;BME280;62745;51.060;13.786;2023-06-10T07:30:06;100232.03;;;21.42;77.66
74327;BME280;62745;51.060;13.786;2023-06-10T07:32:34;100240.13;;;21.32;77.33
74327;BME280;62745;51.060;13.786;2023-06-10T07:35:00;100238.00;;;21.39;77.08
74327;BME280;62745;51.060;13.786;2023-06-10T07:37:25;100245.56;;;21.32;78.62
74327;BME280;62745;51.060;13.786;2023-06-10T07:39:50;100236.31;;;21.33;80.08
74327;BME280;62745;51.060;13.786;2023-06-10T07:42:16;100247.31;;;21.53;78.85
74327;BME280;62745;51.060;13.786;2023-06-10T07:44:42;100241.91;;;21.63;78.90
74327;BME280;62745;51.060;13.786;2023-06-10T07:47:07;100246.88;;;21.72;77.92
74327;BME280;62745;51.060;13.786;2023-06-10T07:49:33;100243.66;;;21.85;76.16
74327;BME280;62745;51.060;13.786;2023-06-10T07:51:58;100242.84;;;21.95;75.68
74327;BME280;62745;51.060;13.786;2023-06-10T07:54:23;100244.56;;;22.06;77.44
74327;BME280;62745;51.060;13.786;2023-06-10T07:56:48;100239.66;;;22.08;76.06
74327;BME280;62745;51.060;13.786;2023-06-10T07:59:14;100241.91;;;22.36;72.75
74327;BME280;62745;51.060;13.786;2023-06-10T08:01:39;100248.97;;;22.42;71.52
74327;BME280;62745;51.060;13.786;2023-06-10T08:04:05;100241.34;;;22.24;70.38
74327;BME280;62745;51.060;13.786;2023-06-10T08:06:31;100237.81;;;22.39;70.47
74327;BME280;62745;51.060;13.786;2023-06-10T08:08:56;100241.91;;;22.67;69.91
74327;BME280;62745;51.060;13.786;2023-06-10T08:11:21;100244.13;;;22.85;68.93
74327;BME280;62745;51.060;13.786;2023-06-10T08:13:47;100241.63;;;22.78;67.90
74327;BME280;62745;51.060;13.786;2023-06-10T08:16:12;100235.97;;;22.90;69.15
74327;BME280;62745;51.060;13.786;2023-06-10T08:18:37;100249.25;;;23.17;67.33
74327;BME280;62745;51.060;13.786;2023-06-10T08:21:02;100249.81;;;23.09;66.94
74327;BME280;62745;51.060;13.786;2023-06-10T08:23:28;100248.72;;;22.79;68.70
74327;BME280;62745;51.060;13.786;2023-06-10T08:25:53;100249.53;;;22.80;67.51
74327;BME280;62745;51.060;13.786;2023-06-10T08:28:18;100252.00;;;22.61;68.86
74327;BME280;62745;51.060;13.786;2023-06-10T08:30:44;100253.09;;;22.70;68.06
74327;BME280;62745;51.060;13.786;2023-06-10T08:33:10;100252.03;;;22.92;68.60
74327;BME280;62745;51.060;13.786;2023-06-10T08:35:35;100259.38;;;23.01;67.26
74327;BME280;62745;51.060;13.786;2023-06-10T08:38:00;100239.75;;;22.69;66.93
74327;BME280;62745;51.060;13.786;2023-06-10T08:40:26;100252.81;;;22.67;67.20
74327;BME280;62745;51.060;13.786;2023-06-10T08:43:06;100253.09;;;22.60;67.05
74327;BME280;62745;51.060;13.786;2023-06-10T08:45:35;100250.38;;;22.96;67.88
74327;BME280;62745;51.060;13.786;2023-06-10T08:48:02;100253.09;;;23.11;66.55
74327;BME280;62745;51.060;13.786;2023-06-10T08:50:30;100247.88;;;23.30;67.46
74327;BME280;62745;51.060;13.786;2023-06-10T08:52:58;100248.38;;;23.57;65.42
74327;BME280;62745;51.060;13.786;2023-06-10T08:55:30;100247.78;;;23.70;64.76
74327;BME280;62745;51.060;13.786;2023-06-10T08:58:00;100251.00;;;23.88;64.04
74327;BME280;62745;51.060;13.786;2023-06-10T09:00:26;100250.84;;;24.13;62.63
74327;BME280;62745;51.060;13.786;2023-06-10T09:02:52;100250.50;;;24.30;62.76
74327;BME280;62745;51.060;13.786;2023-06-10T09:05:17;100245.75;;;24.46;61.96
74327;BME280;62745;51.060;13.786;2023-06-10T09:07:45;100241.75;;;24.67;62.30
74327;BME280;62745;51.060;13.786;2023-06-10T09:10:12;100240.38;;;24.70;61.29
74327;BME280;62745;51.060;13.786;2023-06-10T09:12:37;100236.22;;;24.77;59.90
74327;BME280;62745;51.060;13.786;2023-06-10T09:15:03;100239.41;;;24.84;59.84
74327;BME280;62745;51.060;13.786;2023-06-10T09:17:29;100231.59;;;25.07;59.25
74327;BME280;62745;51.060;13.786;2023-06-10T09:19:54;100236.88;;;24.93;59.02
74327;BME280;62745;51.060;13.786;2023-06-10T09:22:23;100237.91;;;25.02;59.01
74327;BME280;62745;51.060;13.786;2023-06-10T09:24:49;100235.44;;;24.72;59.01
74327;BME280;62745;51.060;13.786;2023-06-10T09:27:14;100232.19;;;24.99;58.65
74327;BME280;62745;51.060;13.786;2023-06-10T09:29:53;100234.69;;;25.24;57.75
74327;BME280;62745;51.060;13.786;2023-06-10T09:32:19;100236.31;;;25.25;57.63
74327;BME280;62745;51.060;13.786;2023-06-10T09:34:46;100231.69;;;25.73;56.44
74327;BME280;62745;51.060;13.786;2023-06-10T09:37:11;100232.09;;;26.04;55.32
74327;BME280;62745;51.060;13.786;2023-06-10T09:39:39;100230.31;;;26.14;53.35
74327;BME280;62745;51.060;13.786;2023-06-10T09:42:18;100237.72;;;26.32;53.92
74327;BME280;62745;51.060;13.786;2023-06-10T09:44:49;100230.31;;;26.32;53.52
74327;BME280;62745;51.060;13.786;2023-06-10T09:47:22;100227.81;;;26.36;53.48
74327;BME280;62745;51.060;13.786;2023-06-10T09:49:51;100229.50;;;26.51;54.04
74327;BME280;62745;51.060;13.786;2023-06-10T09:52:23;100225.53;;;26.43;54.30
74327;BME280;62745;51.060;13.786;2023-06-10T09:54:52;100228.09;;;26.16;52.26
74327;BME280;62745;51.060;13.786;2023-06-10T09:57:19;100227.81;;;26.36;51.94
74327;BME280;62745;51.060;13.786;2023-06-10T09:59:45;100225.34;;;26.72;51.43
74327;BME280;62745;51.060;13.786;2023-06-10T10:02:16;100228.75;;;26.64;49.96
74327;BME280;62745;51.060;13.786;2023-06-10T10:04:45;100223.66;;;26.57;49.78
74327;BME280;62745;51.060;13.786;2023-06-10T10:07:11;100220.72;;;26.67;50.13
74327;BME280;62745;51.060;13.786;2023-06-10T10:09:37;100228.31;;;26.57;49.99
74327;BME280;62745;51.060;13.786;2023-06-10T10:12:09;100213.81;;;26.56;48.66
74327;BME280;62745;51.060;13.786;2023-06-10T10:14:36;100216.72;;;26.46;49.20
74327;BME280;62745;51.060;13.786;2023-06-10T10:17:01;100217.00;;;26.45;48.14
74327;BME280;62745;51.060;13.786;2023-06-10T10:19:31;100208.84;;;26.02;48.46
74327;BME280;62745;51.060;13.786;2023-06-10T10:22:01;100220.38;;;25.80;49.47
74327;BME280;62745;51.060;13.786;2023-06-10T10:24:50;100215.72;;;25.81;50.42
74327;BME280;62745;51.060;13.786;2023-06-10T10:27:24;100216.78;;;26.03;49.31
74327;BME280;62745;51.060;13.786;2023-06-10T10:29:52;100218.25;;;25.53;49.65
74327;BME280;62745;51.060;13.786;2023-06-10T10:32:23;100231.00;;;25.39;50.13
74327;BME280;62745;51.060;13.786;2023-06-10T10:35:03;100218.31;;;25.72;48.86
74327;BME280;62745;51.060;13.786;2023-06-10T10:37:32;100234.97;;;26.51;48.77
74327;BME280;62745;51.060;13.786;2023-06-10T10:39:59;100219.22;;;26.43;47.16
74327;BME280;62745;51.060;13.786;2023-06-10T10:42:25;100226.38;;;26.01;47.53
74327;BME280;62745;51.060;13.786;2023-06-10T10:44:51;100229.50;;;26.13;47.50
74327;BME280;62745;51.060;13.786;2023-06-10T10:47:18;100226.22;;;26.67;47.63
74327;BME280;62745;51.060;13.786;2023-06-10T10:49:48;100221.19;;;27.07;44.97
74327;BME280;62745;51.060;13.786;2023-06-10T10:52:16;100222.81;;;27.22;45.28
74327;BME280;62745;51.060;13.786;2023-06-10T10:54:46;100214.09;;;27.75;45.31
74327;BME280;62745;51.060;13.786;2023-06-10T10:57:17;100222.84;;;28.13;43.60
74327;BME280;62745;51.060;13.786;2023-06-10T10:59:56;100214.41;;;27.73;43.69
74327;BME280;62745;51.060;13.786;2023-06-10T11:02:42;100212.19;;;28.11;43.35
74327;BME280;62745;51.060;13.786;2023-06-10T11:05:10;100207.91;;;28.64;42.52
74327;BME280;62745;51.060;13.786;2023-06-10T11:07:36;100203.31;;;29.04;42.15
74327;BME280;62745;51.060;13.786;2023-06-10T11:10:12;100199.22;;;28.70;43.09
74327;BME280;62745;51.060;13.786;2023-06-10T11:15:09;100202.22;;;28.83;43.14
74327;BME280;62745;51.060;13.786;2023-06-10T11:17:35;100192.16;;;28.78;42.17
74327;BME280;62745;51.060;13.786;2023-06-10T11:20:00;100189.94;;;29.20;42.56
74327;BME280;62745;51.060;13.786;2023-06-10T11:22:25;100187.19;;;29.20;41.38
74327;BME280;62745;51.060;13.786;2023-06-10T11:24:51;100185.44;;;28.62;41.14
74327;BME280;62745;51.060;13.786;2023-06-10T11:27:21;100190.69;;;28.27;43.09
74327;BME280;62745;51.060;13.786;2023-06-10T11:32:34;100184.47;;;27.85;46.07
74327;BME280;62745;51.060;13.786;2023-06-10T11:35:03;100179.56;;;28.86;43.15
74327;BME280;62745;51.060;13.786;2023-06-10T11:37:28;100175.84;;;29.52;40.84
74327;BME280;62745;51.060;13.786;2023-06-10T11:39:57;100178.44;;;29.09;41.20
74327;BME280;62745;51.060;13.786;2023-06-10T11:42:29;100177.22;;;28.93;41.09
74327;BME280;62745;51.060;13.786;2023-06-10T11:44:55;100177.75;;;28.72;42.83
74327;BME280;62745;51.060;13.786;2023-06-10T11:47:22;100181.72;;;28.89;41.74
74327;BME280;62745;51.060;13.786;2023-06-10T11:49:58;100192.81;;;29.06;42.10
74327;BME280;62745;51.060;13.786;2023-06-10T11:52:28;100175.44;;;28.66;42.26
74327;BME280;62745;51.060;13.786;2023-06-10T11:54:56;100166.84;;;28.67;41.57
74327;BME280;62745;51.060;13.786;2023-06-10T11:57:21;100165.94;;;28.50;42.87
74327;BME280;62745;51.060;13.786;2023-06-10T11:59:47;100169.75;;;28.04;42.21
74327;BME280;62745;51.060;13.786;2023-06-10T12:02:17;100166.09;;;27.58;42.46
74327;BME280;62745;51.060;13.786;2023-06-10T12:04:44;100171.66;;;28.17;41.99
74327;BME280;62745;51.060;13.786;2023-06-10T12:07:17;100166.66;;;28.86;41.48
74327;BME280;62745;51.060;13.786;2023-06-10T12:09:43;100157.56;;;29.17;40.26
74327;BME280;62745;51.060;13.786;2023-06-10T12:12:08;100161.72;;;29.05;40.35
74327;BME280;62745;51.060;13.786;2023-06-10T12:14:58;100167.22;;;28.97;37.78
74327;BME280;62745;51.060;13.786;2023-06-10T12:20:01;100158.50;;;28.72;40.00
74327;BME280;62745;51.060;13.786;2023-06-10T12:22:26;100158.44;;;28.64;39.37
74327;BME280;62745;51.060;13.786;2023-06-10T12:25:02;100153.47;;;29.05;38.52
74327;BME280;62745;51.060;13.786;2023-06-10T12:27:29;100159.31;;;29.52;37.55
74327;BME280;62745;51.060;13.786;2023-06-10T12:29:56;100145.25;;;29.62;36.64
74327;BME280;62745;51.060;13.786;2023-06-10T12:32:35;100139.28;;;29.86;36.44
74327;BME280;62745;51.060;13.786;2023-06-10T12:35:05;100134.09;;;29.93;36.09
74327;BME280;62745;51.060;13.786;2023-06-10T12:37:30;100134.59;;;29.95;36.39
74327;BME280;62745;51.060;13.786;2023-06-10T12:40:00;100138.50;;;30.12;36.46
74327;BME280;62745;51.060;13.786;2023-06-10T12:42:25;100123.91;;;29.77;36.86